createdAt,value
2022-07-25T00:02:00.890Z,23.17
2022-07-25T00:04:29.766Z,23.20
2022-07-25T00:06:57.527Z,23.17
2022-07-25T00:09:25.214Z,23.18
2022-07-25T00:11:54.149Z,23.20
2022-07-25T00:14:21.787Z,23.14
2022-07-25T00:16:49.426Z,23.16
2022-07-25T00:19:17.172Z,23.21
2022-07-25T00:21:44.837Z,23.07
2022-07-25T00:24:12.653Z,22.95
2022-07-25T00:26:40.777Z,22.81
2022-07-25T00:29:09.925Z,22.71
2022-07-25T00:31:38.781Z,22.71
2022-07-25T00:34:06.849Z,22.72
2022-07-25T00:36:34.933Z,22.74
2022-07-25T00:39:02.545Z,22.78
2022-07-25T00:41:30.100Z,22.73
2022-07-25T00:43:57.710Z,22.70
2022-07-25T00:46:26.690Z,22.64
2022-07-25T00:48:54.937Z,22.55
2022-07-25T00:51:23.681Z,22.50
2022-07-25T00:53:51.313Z,22.52
2022-07-25T00:56:18.926Z,22.54
2022-07-25T00:58:46.689Z,22.53
2022-07-25T01:01:14.472Z,22.50
2022-07-25T01:03:43.509Z,22.49
2022-07-25T01:06:11.161Z,22.46
2022-07-25T01:08:39.851Z,22.46
2022-07-25T01:11:08.111Z,22.40
2022-07-25T01:13:35.880Z,22.27
2022-07-25T01:16:04.011Z,22.18
2022-07-25T01:18:31.990Z,22.14
2022-07-25T01:21:01.404Z,22.10
2022-07-25T01:23:29.053Z,22.12
2022-07-25T01:25:56.847Z,22.18
2022-07-25T01:28:24.501Z,22.14
2022-07-25T01:30:52.339Z,22.13
2022-07-25T01:33:22.070Z,22.18
2022-07-25T01:35:51.032Z,22.22
2022-07-25T01:38:20.165Z,22.23
2022-07-25T01:40:47.784Z,22.19
2022-07-25T01:43:15.412Z,22.23
2022-07-25T01:45:43.059Z,22.21
2022-07-25T01:48:10.973Z,22.24
2022-07-25T01:50:38.639Z,22.24
2022-07-25T01:53:06.599Z,22.21
2022-07-25T01:55:35.750Z,22.12
2022-07-25T01:58:04.577Z,22.06
2022-07-25T02:00:34.428Z,21.98
2022-07-25T02:03:19.805Z,21.98
2022-07-25T02:05:47.494Z,21.95
2022-07-25T02:08:15.121Z,21.85
2022-07-25T02:10:44.236Z,21.76
2022-07-25T02:13:11.942Z,21.70
2022-07-25T02:15:39.766Z,21.72
2022-07-25T02:18:07.480Z,21.67
2022-07-25T02:20:35.303Z,21.70
2022-07-25T02:23:03.792Z,21.75
2022-07-25T02:25:31.840Z,21.73
2022-07-25T02:28:01.401Z,21.75
2022-07-25T02:30:29.210Z,21.77
2022-07-25T02:32:56.922Z,21.79
2022-07-25T02:35:24.634Z,21.75
2022-07-25T02:37:52.349Z,21.71
2022-07-25T02:40:19.981Z,21.65
2022-07-25T02:42:47.670Z,21.67
2022-07-25T02:45:16.771Z,21.68
2022-07-25T02:47:44.481Z,21.68
2022-07-25T02:50:14.967Z,21.72
2022-07-25T02:52:42.862Z,21.62
2022-07-25T02:55:11.931Z,21.47
2022-07-25T02:57:39.661Z,21.20
2022-07-25T03:00:08.831Z,21.09
2022-07-25T03:02:37.961Z,20.97
2022-07-25T03:05:08.227Z,20.95
2022-07-25T03:07:36.081Z,20.92
2022-07-25T03:10:03.955Z,20.97
2022-07-25T03:12:39.584Z,21.13
2022-07-25T03:15:08.489Z,21.19
2022-07-25T03:17:36.227Z,21.20
2022-07-25T03:20:05.945Z,21.01
2022-07-25T03:22:33.855Z,20.94
2022-07-25T03:25:01.749Z,20.86
2022-07-25T03:27:29.605Z,20.92
2022-07-25T03:29:58.205Z,21.01
2022-07-25T03:32:25.793Z,21.05
2022-07-25T03:34:53.508Z,21.00
2022-07-25T03:37:23.806Z,21.02
2022-07-25T03:39:51.387Z,20.96
2022-07-25T03:42:22.396Z,21.02
2022-07-25T03:44:52.864Z,20.92
2022-07-25T03:47:21.009Z,20.95
2022-07-25T03:49:48.722Z,20.74
2022-07-25T03:52:16.365Z,20.55
2022-07-25T03:54:45.294Z,20.36
2022-07-25T03:57:12.930Z,20.46
2022-07-25T03:59:40.581Z,20.54
2022-07-25T04:02:08.258Z,20.71
2022-07-25T04:04:36.019Z,20.80
2022-07-25T04:07:03.840Z,20.92
2022-07-25T04:09:33.735Z,20.97
2022-07-25T04:12:04.231Z,21.04
2022-07-25T04:14:32.089Z,20.92
2022-07-25T04:16:59.864Z,20.81
2022-07-25T04:19:28.277Z,20.89
2022-07-25T04:21:56.864Z,20.94
2022-07-25T04:24:24.525Z,20.79
2022-07-25T04:26:52.165Z,20.60
2022-07-25T04:29:21.220Z,20.50
2022-07-25T04:31:49.000Z,20.57
2022-07-25T04:34:16.697Z,20.74
2022-07-25T04:36:44.325Z,20.67
2022-07-25T04:39:11.996Z,20.53
2022-07-25T04:41:39.634Z,20.43
2022-07-25T04:44:08.758Z,20.36
2022-07-25T04:46:38.170Z,20.28
2022-07-25T04:49:05.927Z,20.19
2022-07-25T04:51:35.747Z,20.25
2022-07-25T04:54:04.083Z,20.32
2022-07-25T04:56:31.971Z,20.27
2022-07-25T04:59:03.273Z,20.23
2022-07-25T05:01:34.565Z,20.18
2022-07-25T05:04:04.076Z,20.16
2022-07-25T05:06:32.021Z,20.17
2022-07-25T05:08:59.753Z,20.17
2022-07-25T05:11:27.353Z,20.18
2022-07-25T05:13:54.949Z,20.26
2022-07-25T05:16:22.607Z,20.36
2022-07-25T05:18:50.336Z,20.53
2022-07-25T05:21:19.329Z,20.76
2022-07-25T05:23:46.989Z,20.97
2022-07-25T05:26:14.640Z,21.08
2022-07-25T05:28:42.271Z,21.16
2022-07-25T05:31:09.985Z,21.22
2022-07-25T05:33:37.677Z,21.28
2022-07-25T05:36:05.965Z,21.36
2022-07-25T05:38:34.924Z,21.51
2022-07-25T05:41:02.608Z,21.62
2022-07-25T05:43:30.262Z,21.78
2022-07-25T05:46:01.561Z,21.88
2022-07-25T05:48:29.368Z,21.93
2022-07-25T05:50:59.057Z,22.05
2022-07-25T05:53:26.723Z,22.11
2022-07-25T05:55:55.739Z,22.17
2022-07-25T05:58:29.105Z,22.21
2022-07-25T06:00:57.927Z,22.28
2022-07-25T06:03:25.759Z,22.35
2022-07-25T06:05:53.559Z,22.38
2022-07-25T06:08:21.221Z,22.45
2022-07-25T06:10:50.290Z,22.53
2022-07-25T06:13:20.225Z,22.64
2022-07-25T06:15:48.609Z,22.71
2022-07-25T06:18:16.354Z,22.79
2022-07-25T06:20:44.064Z,22.88
2022-07-25T06:23:11.847Z,22.96
2022-07-25T06:25:39.517Z,23.04
2022-07-25T06:28:07.185Z,23.11
2022-07-25T06:30:39.664Z,23.16
2022-07-25T06:33:07.327Z,23.25
2022-07-25T06:35:35.022Z,23.35
2022-07-25T06:38:02.679Z,23.42
2022-07-25T06:40:30.297Z,23.49
2022-07-25T06:42:58.636Z,23.55
2022-07-25T06:45:27.321Z,23.63
2022-07-25T06:47:56.333Z,23.74
2022-07-25T06:50:23.981Z,23.82
2022-07-25T06:52:51.632Z,23.90
2022-07-25T06:55:19.714Z,23.99
2022-07-25T06:57:47.873Z,24.06
2022-07-25T07:00:16.167Z,24.17
2022-07-25T07:02:52.187Z,24.30
2022-07-25T07:05:21.946Z,24.39
2022-07-25T07:07:49.669Z,24.52
2022-07-25T07:10:17.966Z,24.63
2022-07-25T07:12:45.890Z,24.75
2022-07-25T07:15:14.095Z,24.86
2022-07-25T07:17:41.801Z,25.01
2022-07-25T07:20:10.684Z,25.09
2022-07-25T07:22:46.351Z,25.21
2022-07-25T07:25:15.863Z,25.33
2022-07-25T07:27:43.983Z,25.49
2022-07-25T07:30:14.666Z,25.62
2022-07-25T07:32:43.361Z,25.76
2022-07-25T07:35:12.145Z,25.85
2022-07-25T07:37:43.447Z,25.97
2022-07-25T07:40:16.797Z,26.10
2022-07-25T07:42:47.246Z,26.17
2022-07-25T07:45:16.759Z,26.25
2022-07-25T07:47:46.756Z,26.37
2022-07-25T07:50:14.718Z,26.46
2022-07-25T07:52:42.447Z,26.56
2022-07-25T07:55:29.775Z,26.63
2022-07-25T07:57:59.480Z,26.72
2022-07-25T08:00:30.291Z,26.84
2022-07-25T08:02:59.892Z,26.98
2022-07-25T08:05:29.570Z,27.26
2022-07-25T08:07:57.826Z,27.76
2022-07-25T08:10:28.859Z,27.99
2022-07-25T08:12:56.904Z,28.11
2022-07-25T08:15:24.530Z,28.23
2022-07-25T08:17:53.179Z,28.37
2022-07-25T08:20:37.360Z,28.48
2022-07-25T08:23:06.433Z,28.59
2022-07-25T08:25:36.106Z,28.65
2022-07-25T08:28:06.211Z,28.69
2022-07-25T08:30:34.802Z,28.78
2022-07-25T08:33:04.469Z,28.90
2022-07-25T08:35:33.257Z,28.97
2022-07-25T08:38:01.789Z,29.05
2022-07-25T08:40:31.556Z,29.12
2022-07-25T08:43:01.230Z,29.17
2022-07-25T08:45:29.827Z,29.29
2022-07-25T08:47:57.843Z,29.31
2022-07-25T08:50:28.122Z,29.49
2022-07-25T08:53:10.334Z,29.57
2022-07-25T08:55:45.617Z,29.71
2022-07-25T08:58:16.452Z,29.80
2022-07-25T09:00:44.906Z,29.93
2022-07-25T09:03:13.146Z,29.98
2022-07-25T09:05:41.150Z,30.02
2022-07-25T09:08:10.996Z,30.07
2022-07-25T09:10:40.656Z,30.14
2022-07-25T09:13:13.970Z,30.17
2022-07-25T09:15:46.402Z,30.26
2022-07-25T09:18:16.925Z,30.29
2022-07-25T09:20:46.856Z,30.35
2022-07-25T09:23:16.066Z,30.44
2022-07-25T09:25:43.704Z,30.46
2022-07-25T09:28:16.074Z,30.57
2022-07-25T09:30:55.970Z,30.71
2022-07-25T09:33:24.909Z,30.72
2022-07-25T09:35:54.025Z,30.85
2022-07-25T09:38:24.177Z,30.91
2022-07-25T09:40:56.383Z,30.90
2022-07-25T09:43:24.631Z,30.91
2022-07-25T09:45:53.188Z,31.00
2022-07-25T09:48:22.197Z,31.08
2022-07-25T09:50:51.346Z,31.16
2022-07-25T09:53:20.944Z,31.36
2022-07-25T09:55:48.537Z,31.47
2022-07-25T09:58:16.162Z,31.53
2022-07-25T10:00:44.117Z,31.56
2022-07-25T10:03:25.441Z,31.65
2022-07-25T10:06:08.853Z,31.79
2022-07-25T10:08:38.311Z,31.92
2022-07-25T10:11:06.829Z,31.93
2022-07-25T10:13:38.195Z,31.98
2022-07-25T10:16:15.977Z,32.04
2022-07-25T10:18:50.374Z,32.27
2022-07-25T10:21:28.197Z,32.66
2022-07-25T10:24:02.393Z,32.86
2022-07-25T10:26:30.659Z,32.81
2022-07-25T10:28:59.048Z,33.18
2022-07-25T10:31:35.611Z,33.14
2022-07-25T10:34:05.670Z,33.07
2022-07-25T10:36:45.127Z,33.23
2022-07-25T10:39:15.512Z,33.22
2022-07-25T10:41:53.794Z,33.18
2022-07-25T10:44:22.086Z,33.29
2022-07-25T10:46:50.216Z,33.42
2022-07-25T10:49:23.648Z,33.59
2022-07-25T10:52:00.350Z,33.59
2022-07-25T10:54:34.850Z,33.40
2022-07-25T10:57:02.876Z,33.47
2022-07-25T10:59:33.619Z,33.58
2022-07-25T11:02:01.636Z,33.74
2022-07-25T11:04:29.355Z,33.81
2022-07-25T11:06:58.973Z,33.86
2022-07-25T11:09:28.828Z,34.06
2022-07-25T11:11:58.635Z,33.97
2022-07-25T11:14:31.092Z,34.23
2022-07-25T11:16:59.222Z,34.16
2022-07-25T11:19:29.257Z,34.22
2022-07-25T11:21:59.743Z,34.34
2022-07-25T11:24:35.832Z,33.98
2022-07-25T11:27:08.376Z,34.12
2022-07-25T11:29:39.551Z,34.35
2022-07-25T11:32:10.136Z,34.52
2022-07-25T11:34:39.217Z,34.78
2022-07-25T11:37:11.821Z,34.67
2022-07-25T11:39:42.159Z,34.79
2022-07-25T11:42:11.241Z,34.72
2022-07-25T11:44:47.454Z,34.58
2022-07-25T11:47:25.449Z,34.56
2022-07-25T11:49:54.725Z,34.44
2022-07-25T11:52:26.123Z,34.40
2022-07-25T11:54:54.748Z,34.06
2022-07-25T11:57:24.018Z,33.94
2022-07-25T11:59:51.726Z,34.17
2022-07-25T12:02:24.093Z,34.59
2022-07-25T12:04:58.292Z,34.78
2022-07-25T12:07:37.681Z,34.89
2022-07-25T12:10:06.412Z,35.14
2022-07-25T12:12:43.493Z,35.36
2022-07-25T12:15:12.336Z,35.98
2022-07-25T12:17:41.449Z,36.19
2022-07-25T12:20:15.406Z,36.88
2022-07-25T12:22:45.007Z,37.26
2022-07-25T12:25:12.949Z,36.77
2022-07-25T12:27:41.285Z,36.58
2022-07-25T12:30:10.332Z,36.37
2022-07-25T12:32:38.534Z,35.95
2022-07-25T12:35:07.811Z,36.25
2022-07-25T12:37:35.605Z,36.06
2022-07-25T12:40:05.301Z,36.08
2022-07-25T12:42:32.950Z,36.31
2022-07-25T12:45:00.527Z,36.70
2022-07-25T12:47:29.385Z,36.93
2022-07-25T12:49:57.200Z,37.04
2022-07-25T12:52:24.903Z,36.98
2022-07-25T12:54:52.610Z,36.73
2022-07-25T12:57:21.627Z,36.58
2022-07-25T12:59:49.485Z,37.29
2022-07-25T13:02:17.130Z,36.79
2022-07-25T13:04:45.188Z,37.03
2022-07-25T13:07:14.063Z,37.23
2022-07-25T13:09:41.844Z,36.58
2022-07-25T13:12:13.487Z,36.09
2022-07-25T13:14:45.136Z,35.75
2022-07-25T13:17:12.945Z,35.89
2022-07-25T13:19:40.583Z,35.37
2022-07-25T13:22:08.253Z,35.40
2022-07-25T13:24:35.925Z,35.23
2022-07-25T13:27:04.223Z,34.78
2022-07-25T13:29:32.147Z,34.85
2022-07-25T13:32:01.469Z,34.68
2022-07-25T13:34:30.708Z,34.84
2022-07-25T13:36:58.352Z,35.13
2022-07-25T13:39:27.133Z,35.06
2022-07-25T13:41:54.972Z,35.10
2022-07-25T13:44:22.575Z,35.11
2022-07-25T13:46:50.403Z,34.71
2022-07-25T13:49:19.864Z,35.21
2022-07-25T13:51:47.602Z,35.13
2022-07-25T13:54:15.271Z,35.71
2022-07-25T13:56:43.174Z,36.77
2022-07-25T13:59:15.986Z,36.33
2022-07-25T14:01:47.373Z,36.67
2022-07-25T14:04:15.089Z,37.18
2022-07-25T14:06:44.331Z,36.94
2022-07-25T14:09:12.091Z,35.89
2022-07-25T14:11:39.824Z,35.75
2022-07-25T14:14:07.560Z,35.65
2022-07-25T14:16:35.263Z,34.58
2022-07-25T14:19:03.208Z,34.45
2022-07-25T14:21:31.120Z,34.29
2022-07-25T14:24:01.467Z,34.06
2022-07-25T14:26:30.940Z,33.85
2022-07-25T14:28:58.627Z,33.61
2022-07-25T14:31:27.037Z,33.28
2022-07-25T14:33:54.879Z,33.18
2022-07-25T14:36:22.610Z,33.17
2022-07-25T14:38:50.202Z,32.96
2022-07-25T14:41:19.194Z,32.90
2022-07-25T14:43:46.912Z,32.81
2022-07-25T14:46:15.506Z,33.62
2022-07-25T14:48:43.362Z,34.18
2022-07-25T14:51:11.055Z,35.35
2022-07-25T14:53:38.676Z,36.22
2022-07-25T14:56:07.275Z,36.52
2022-07-25T14:58:38.084Z,36.11
2022-07-25T15:01:06.367Z,35.73
2022-07-25T15:03:34.127Z,35.41
2022-07-25T15:06:01.975Z,35.13
2022-07-25T15:08:29.817Z,34.91
2022-07-25T15:10:57.462Z,34.73
2022-07-25T15:13:32.658Z,34.68
2022-07-25T15:16:03.600Z,34.50
2022-07-25T15:18:31.973Z,34.13
2022-07-25T15:20:59.678Z,34.10
2022-07-25T15:23:30.338Z,34.36
2022-07-25T15:26:01.798Z,34.84
2022-07-25T15:28:30.444Z,34.85
2022-07-25T15:30:58.148Z,34.77
2022-07-25T15:33:27.263Z,33.93
2022-07-25T15:35:55.800Z,33.42
2022-07-25T15:38:23.806Z,33.29
2022-07-25T15:40:51.683Z,33.43
2022-07-25T15:43:19.389Z,33.49
2022-07-25T15:45:47.414Z,33.70
2022-07-25T15:48:17.084Z,33.76
2022-07-25T15:50:48.051Z,33.95
2022-07-25T15:53:17.044Z,35.72
2022-07-25T15:55:44.864Z,37.73
2022-07-25T15:58:12.721Z,39.29
2022-07-25T16:00:41.501Z,39.81
2022-07-25T16:03:09.761Z,39.27
2022-07-25T16:05:39.085Z,39.15
2022-07-25T16:08:09.791Z,39.18
2022-07-25T16:10:38.075Z,39.08
2022-07-25T16:13:05.941Z,38.95
2022-07-25T16:15:33.638Z,38.52
2022-07-25T16:18:03.011Z,38.07
2022-07-25T16:20:32.134Z,38.92
2022-07-25T16:23:00.331Z,40.76
2022-07-25T16:25:30.440Z,43.18
2022-07-25T16:27:58.833Z,43.27
2022-07-25T16:30:27.684Z,43.68
2022-07-25T16:32:55.735Z,43.87
2022-07-25T16:35:24.084Z,44.11
2022-07-25T16:37:52.025Z,44.56
2022-07-25T16:40:19.667Z,43.85
2022-07-25T16:42:50.466Z,43.09
2022-07-25T16:45:18.089Z,41.86
2022-07-25T16:47:45.753Z,42.09
2022-07-25T16:50:13.417Z,39.85
2022-07-25T16:52:41.018Z,39.43
2022-07-25T16:55:09.416Z,38.36
2022-07-25T16:57:38.837Z,37.96
2022-07-25T17:00:10.152Z,38.85
2022-07-25T17:02:37.975Z,39.44
2022-07-25T17:05:06.428Z,38.93
2022-07-25T17:07:34.559Z,39.83
2022-07-25T17:10:03.776Z,38.43
2022-07-25T17:12:31.450Z,37.25
2022-07-25T17:14:59.089Z,37.34
2022-07-25T17:17:28.545Z,37.40
2022-07-25T17:19:59.848Z,36.66
2022-07-25T17:22:27.866Z,37.02
2022-07-25T17:24:55.492Z,37.16
2022-07-25T17:27:23.177Z,37.02
2022-07-25T17:29:50.979Z,37.72
2022-07-25T17:32:18.686Z,37.23
2022-07-25T17:34:47.638Z,36.79
2022-07-25T17:37:15.283Z,35.98
2022-07-25T17:39:42.959Z,35.79
2022-07-25T17:42:10.570Z,35.49
2022-07-25T17:44:38.286Z,35.37
2022-07-25T17:47:07.055Z,34.49
2022-07-25T17:49:34.666Z,33.83
2022-07-25T17:52:03.660Z,33.48
2022-07-25T17:54:31.386Z,33.14
2022-07-25T17:56:59.359Z,32.47
2022-07-25T17:59:27.253Z,32.14
2022-07-25T18:01:54.868Z,31.76
2022-07-25T18:04:23.149Z,31.56
2022-07-25T18:06:50.938Z,31.46
2022-07-25T18:09:20.257Z,31.46
2022-07-25T18:11:48.368Z,31.59
2022-07-25T18:14:15.964Z,31.52
2022-07-25T18:16:45.296Z,31.20
2022-07-25T18:19:13.291Z,30.71
2022-07-25T18:21:40.984Z,30.50
2022-07-25T18:24:09.315Z,30.30
2022-07-25T18:26:39.597Z,30.12
2022-07-25T18:29:08.048Z,29.99
2022-07-25T18:31:36.092Z,29.84
2022-07-25T18:34:04.748Z,29.65
2022-07-25T18:36:32.782Z,29.67
2022-07-25T18:39:00.457Z,29.55
2022-07-25T18:41:29.960Z,29.31
2022-07-25T18:44:01.033Z,29.35
2022-07-25T18:46:29.713Z,29.25
2022-07-25T18:48:58.818Z,29.11
2022-07-25T18:51:26.528Z,29.07
2022-07-25T18:53:54.206Z,29.03
2022-07-25T18:56:21.934Z,28.96
2022-07-25T18:58:49.680Z,28.88
2022-07-25T19:01:18.711Z,28.79
2022-07-25T19:03:46.435Z,28.69
2022-07-25T19:06:14.677Z,28.63
2022-07-25T19:08:43.751Z,28.59
2022-07-25T19:11:11.422Z,28.54
2022-07-25T19:13:49.527Z,28.47
2022-07-25T19:16:20.516Z,28.42
2022-07-25T19:18:48.986Z,28.30
2022-07-25T19:21:16.733Z,28.26
2022-07-25T19:23:50.120Z,28.17
2022-07-25T19:26:18.598Z,28.06
2022-07-25T19:28:46.402Z,27.96
2022-07-25T19:31:15.052Z,27.91
2022-07-25T19:33:45.628Z,27.83
2022-07-25T19:36:13.542Z,27.72
2022-07-25T19:38:41.153Z,27.61
2022-07-25T19:41:09.469Z,27.52
2022-07-25T19:43:37.085Z,27.44
2022-07-25T19:46:04.865Z,27.40
2022-07-25T19:48:32.553Z,27.25
2022-07-25T19:51:01.673Z,27.20
2022-07-25T19:53:29.321Z,27.18
2022-07-25T19:55:56.932Z,27.16
2022-07-25T19:58:24.677Z,27.15
2022-07-25T20:00:52.363Z,27.10
2022-07-25T20:03:23.288Z,27.01
2022-07-25T20:05:51.933Z,26.94
2022-07-25T20:08:21.388Z,26.93
2022-07-25T20:10:49.248Z,26.82
2022-07-25T20:13:17.556Z,26.73
2022-07-25T20:15:45.352Z,26.62
2022-07-25T20:18:19.117Z,26.57
2022-07-25T20:20:47.549Z,26.48
2022-07-25T20:23:15.787Z,26.40
2022-07-25T20:25:44.922Z,26.37
2022-07-25T20:28:13.060Z,26.24
2022-07-25T20:30:40.938Z,26.18
2022-07-25T20:33:09.829Z,26.07
2022-07-25T20:35:38.213Z,25.98
2022-07-25T20:38:14.600Z,25.90
2022-07-25T20:40:49.489Z,25.83
2022-07-25T20:43:19.781Z,25.71
2022-07-25T20:45:47.918Z,25.61
2022-07-25T20:48:16.009Z,25.50
2022-07-25T20:50:44.374Z,25.40
2022-07-25T20:53:12.449Z,25.30
2022-07-25T20:55:40.321Z,25.21
2022-07-25T20:58:08.158Z,25.15
2022-07-25T21:00:37.300Z,25.12
2022-07-25T21:03:05.381Z,25.07
2022-07-25T21:05:37.513Z,24.98
2022-07-25T21:08:05.287Z,24.91
2022-07-25T21:10:33.210Z,24.86
2022-07-25T21:13:00.865Z,24.79
2022-07-25T21:15:28.592Z,24.79
2022-07-25T21:17:58.026Z,24.76
2022-07-25T21:20:25.665Z,24.65
2022-07-25T21:22:55.489Z,24.62
2022-07-25T21:25:23.453Z,24.59
2022-07-25T21:27:51.193Z,24.52
2022-07-25T21:30:18.852Z,24.47
2022-07-25T21:32:46.544Z,24.39
2022-07-25T21:35:16.754Z,24.34
2022-07-25T21:37:44.777Z,24.25
2022-07-25T21:40:12.581Z,24.14
2022-07-25T21:42:40.293Z,24.06
2022-07-25T21:45:08.924Z,24.05
2022-07-25T21:47:36.533Z,23.95
2022-07-25T21:50:24.984Z,23.91
2022-07-25T21:52:54.807Z,23.79
2022-07-25T21:55:22.785Z,23.69
2022-07-25T21:57:51.201Z,23.72
2022-07-25T22:00:20.231Z,23.69
2022-07-25T22:02:48.213Z,23.78
2022-07-25T22:05:18.820Z,23.89
2022-07-25T22:07:48.098Z,23.89
2022-07-25T22:10:19.312Z,23.96
2022-07-25T22:12:47.041Z,23.99
2022-07-25T22:15:17.872Z,24.02
2022-07-25T22:17:49.655Z,24.02
2022-07-25T22:20:18.610Z,24.11
2022-07-25T22:22:46.603Z,24.05
2022-07-25T22:25:14.369Z,24.02
2022-07-25T22:27:43.917Z,24.01
2022-07-25T22:30:18.441Z,24.01
2022-07-25T22:32:46.798Z,24.03
2022-07-25T22:35:14.414Z,24.03
2022-07-25T22:37:42.047Z,24.01
2022-07-25T22:40:10.551Z,24.00
2022-07-25T22:42:38.163Z,23.97
2022-07-25T22:45:08.306Z,24.00
2022-07-25T22:47:35.867Z,24.04
2022-07-25T22:50:03.896Z,23.99
2022-07-25T22:52:31.619Z,24.01
2022-07-25T22:54:59.350Z,24.06
2022-07-25T22:57:27.117Z,24.13
2022-07-25T22:59:54.809Z,24.22
2022-07-25T23:02:23.757Z,24.17
2022-07-25T23:04:51.349Z,24.20
2022-07-25T23:07:19.083Z,24.38
2022-07-25T23:09:46.713Z,24.47
2022-07-25T23:12:14.357Z,24.57
2022-07-25T23:14:42.018Z,24.62
2022-07-25T23:17:19.904Z,24.65
2022-07-25T23:19:51.040Z,24.78
2022-07-25T23:22:19.668Z,24.87
2022-07-25T23:24:47.341Z,24.89
2022-07-25T23:27:15.084Z,24.73
2022-07-25T23:29:43.197Z,24.66
2022-07-25T23:32:10.920Z,24.76
2022-07-25T23:34:38.534Z,24.64
2022-07-25T23:37:07.798Z,24.46
2022-07-25T23:39:35.463Z,24.46
2022-07-25T23:42:03.688Z,24.42
2022-07-25T23:44:31.575Z,24.39
2022-07-25T23:46:59.739Z,24.41
2022-07-25T23:49:29.286Z,24.40
2022-07-25T23:51:57.417Z,24.38
2022-07-25T23:54:26.433Z,24.44
2022-07-25T23:56:54.613Z,24.45
2022-07-25T23:59:22.216Z,24.44
